createdAt,value
2023-04-11T00:04:27.063Z,56.35
2023-04-11T00:09:27.809Z,56.35
2023-04-11T00:14:28.504Z,56.15
2023-04-11T00:19:29.212Z,56.04
2023-04-11T00:24:29.972Z,56.25
2023-04-11T00:29:30.623Z,56.15
2023-04-11T00:34:31.328Z,56.58
2023-04-11T00:39:32.033Z,56.38
2023-04-11T00:44:32.844Z,56.68
2023-04-11T00:49:33.498Z,56.89
2023-04-11T00:54:34.197Z,56.48
2023-04-11T00:59:34.898Z,56.99
2023-04-11T01:04:35.641Z,56.92
2023-04-11T01:09:36.383Z,57.43
2023-04-11T01:14:37.047Z,57.12
2023-04-11T01:19:37.768Z,57.22
2023-04-11T01:24:38.467Z,57.43
2023-04-11T01:29:39.166Z,57.32
2023-04-11T01:34:39.902Z,57.53
2023-04-11T01:39:40.568Z,57.53
2023-04-11T01:44:41.269Z,57.63
2023-04-11T01:49:41.980Z,58.04
2023-04-11T01:54:42.704Z,57.66
2023-04-11T01:59:43.378Z,57.63
2023-04-11T02:04:44.090Z,57.86
2023-04-11T02:09:44.818Z,58.07
2023-04-11T02:14:45.505Z,57.76
2023-04-11T02:19:46.215Z,58.48
2023-04-11T02:24:46.928Z,58.17
2023-04-11T02:29:47.655Z,58.58
2023-04-11T02:34:48.336Z,58.78
2023-04-11T02:39:49.040Z,58.50
2023-04-11T02:44:49.771Z,59.32
2023-04-11T02:49:50.457Z,58.81
2023-04-11T02:54:51.159Z,58.91
2023-04-11T02:59:51.886Z,59.73
2023-04-11T03:04:52.579Z,59.42
2023-04-11T03:09:53.281Z,59.01
2023-04-11T03:14:53.996Z,59.22
2023-04-11T03:19:54.679Z,59.53
2023-04-11T03:24:55.400Z,59.53
2023-04-11T03:29:56.111Z,59.42
2023-04-11T03:34:56.845Z,60.03
2023-04-11T03:39:57.531Z,59.63
2023-04-11T03:44:58.231Z,59.53
2023-04-11T03:49:59.005Z,59.73
2023-04-11T03:54:59.612Z,60.14
2023-04-11T04:00:00.319Z,61.47
2023-04-11T04:05:01.034Z,63.62
2023-04-11T04:10:01.677Z,64.64
2023-04-11T04:15:09.307Z,65.08
2023-04-11T04:20:02.928Z,64.36
2023-04-11T04:25:03.593Z,65.59
2023-04-11T04:30:04.811Z,66.82
2023-04-11T04:35:04.978Z,68.32
2023-04-11T04:40:05.658Z,70.61
2023-04-11T04:45:06.298Z,73.16
2023-04-11T04:50:06.958Z,77.60
2023-04-11T04:55:07.675Z,79.79
2023-04-11T05:00:08.291Z,81.46
2023-04-11T05:05:08.941Z,81.87
2023-04-11T05:10:09.587Z,82.39
2023-04-11T05:15:10.275Z,83.04
2023-04-11T05:20:10.914Z,83.34
2023-04-11T05:25:11.573Z,84.06
2023-04-11T05:30:12.224Z,84.58
2023-04-11T05:35:12.993Z,84.99
2023-04-11T05:40:13.584Z,85.50
2023-04-11T05:45:14.240Z,86.66
2023-04-11T05:50:14.913Z,87.08
2023-04-11T05:55:15.533Z,87.14
2023-04-11T06:00:16.205Z,89.54
2023-04-11T06:05:16.920Z,88.17
2023-04-11T06:10:17.643Z,87.76
2023-04-11T06:15:18.253Z,88.06
2023-04-11T06:20:18.901Z,87.61
2023-04-11T06:25:19.542Z,88.59
2023-04-11T06:30:20.216Z,86.96
2023-04-11T06:35:20.861Z,86.75
2023-04-11T06:40:21.524Z,86.96
2023-04-11T06:45:22.187Z,88.08
2023-04-11T06:50:22.841Z,88.64
2023-04-11T06:55:23.473Z,88.74
2023-04-11T07:00:24.127Z,88.29
2023-04-11T07:05:24.769Z,88.18
2023-04-11T07:10:25.451Z,88.14
2023-04-11T07:15:26.080Z,87.73
2023-04-11T07:20:26.733Z,88.65
2023-04-11T07:25:27.396Z,88.04
2023-04-11T07:30:28.090Z,88.31
2023-04-11T07:35:28.682Z,88.20
2023-04-11T07:40:29.334Z,87.49
2023-04-11T07:45:30.060Z,87.38
2023-04-11T07:50:30.697Z,86.43
2023-04-11T07:55:31.329Z,86.36
2023-04-11T08:00:31.994Z,87.18
2023-04-11T08:05:32.706Z,87.45
2023-04-11T08:10:33.317Z,87.65
2023-04-11T08:15:33.968Z,86.77
2023-04-11T08:20:34.651Z,84.56
2023-04-11T08:25:35.272Z,89.66
2023-04-11T08:30:35.980Z,90.07
2023-04-11T08:35:36.649Z,90.75
2023-04-11T08:40:37.297Z,86.28
2023-04-11T08:45:38.031Z,86.34
2023-04-11T08:50:38.655Z,84.70
2023-04-11T08:55:39.307Z,85.31
2023-04-11T09:00:40.002Z,84.50
2023-04-11T09:05:40.765Z,83.06
2023-04-11T09:10:41.684Z,82.82
2023-04-11T09:15:42.477Z,80.69
2023-04-11T09:20:43.085Z,81.68
2023-04-11T09:25:43.755Z,79.80
2023-04-11T09:30:44.400Z,77.76
2023-04-11T09:35:45.054Z,76.19
2023-04-11T09:40:45.699Z,74.22
2023-04-11T09:45:54.143Z,73.67
2023-04-11T09:50:47.909Z,72.96
2023-04-11T09:55:47.565Z,72.86
2023-04-11T10:00:48.269Z,72.31
2023-04-11T10:05:50.022Z,72.11
2023-04-11T10:10:49.683Z,72.72
2023-04-11T10:15:50.325Z,71.87
2023-04-11T10:20:50.973Z,69.70
2023-04-11T10:25:51.628Z,68.24
2023-04-11T10:30:52.337Z,65.12
2023-04-11T10:35:52.960Z,65.25
2023-04-11T10:40:53.604Z,63.90
2023-04-11T10:45:54.322Z,62.75
2023-04-11T10:50:54.971Z,60.85
2023-04-11T10:55:55.629Z,60.31
2023-04-11T11:00:56.348Z,61.05
2023-04-11T11:05:57.029Z,61.31
2023-04-11T11:10:57.743Z,62.66
2023-04-11T11:15:58.370Z,65.11
2023-04-11T11:20:59.015Z,65.52
2023-04-11T11:25:59.701Z,64.94
2023-04-11T11:31:00.348Z,63.58
2023-04-11T11:36:01.009Z,60.91
2023-04-11T11:41:01.662Z,60.37
2023-04-11T11:46:02.905Z,61.63
2023-04-11T11:51:03.200Z,60.82
2023-04-11T11:56:03.910Z,60.31
2023-04-11T12:01:04.819Z,61.38
2023-04-11T12:06:05.411Z,62.74
2023-04-11T12:11:13.046Z,59.63
2023-04-11T12:16:06.759Z,59.77
2023-04-11T12:21:07.346Z,65.05
2023-04-11T12:26:07.948Z,67.12
2023-04-11T12:31:08.624Z,67.76
2023-04-11T12:36:09.254Z,64.29
2023-04-11T12:46:10.808Z,70.37
2023-04-11T12:51:11.454Z,68.91
2023-04-11T12:56:12.118Z,68.80
2023-04-11T13:01:12.753Z,69.86
2023-04-11T13:06:13.420Z,70.37
2023-04-11T13:11:14.080Z,71.05
2023-04-11T13:16:14.804Z,71.05
2023-04-11T13:21:15.498Z,75.10
2023-04-11T13:26:16.188Z,76.98
2023-04-11T13:31:16.858Z,79.37
2023-04-11T13:36:17.496Z,82.57
2023-04-11T13:41:18.195Z,80.74
2023-04-11T13:46:18.848Z,81.94
2023-04-11T13:51:19.483Z,81.94
2023-04-11T13:56:20.190Z,81.29
2023-04-11T14:01:20.818Z,83.98
2023-04-11T14:06:21.464Z,85.72
2023-04-11T14:11:22.157Z,84.12
2023-04-11T14:16:22.824Z,85.04
2023-04-11T14:21:23.406Z,85.62
2023-04-11T14:26:24.084Z,83.77
2023-04-11T14:31:24.836Z,82.54
2023-04-11T14:36:25.546Z,84.34
2023-04-11T14:41:26.226Z,82.84
2023-04-11T14:46:26.914Z,82.33
2023-04-11T14:51:27.568Z,80.35
2023-04-11T14:56:28.231Z,81.48
2023-04-11T15:01:28.903Z,81.64
2023-04-11T15:06:29.568Z,80.47
2023-04-11T15:11:30.231Z,79.75
2023-04-11T15:16:30.916Z,79.31
2023-04-11T15:21:31.534Z,78.76
2023-04-11T15:26:32.178Z,77.73
2023-04-11T15:31:32.911Z,77.67
2023-04-11T15:36:33.572Z,75.69
2023-04-11T15:41:34.200Z,74.94
2023-04-11T15:46:34.957Z,74.32
2023-04-11T15:51:35.597Z,74.32
2023-04-11T15:56:36.245Z,73.50
2023-04-11T16:01:36.927Z,74.39
2023-04-11T16:06:37.568Z,73.57
2023-04-11T16:11:38.200Z,74.05
2023-04-11T16:16:38.893Z,76.95
2023-04-11T16:21:39.558Z,78.90
2023-04-11T16:26:40.162Z,75.49
2023-04-11T16:31:40.866Z,76.20
2023-04-11T16:36:41.476Z,76.20
2023-04-11T16:41:42.163Z,76.82
2023-04-11T16:46:42.783Z,77.54
2023-04-11T16:51:43.425Z,75.90
2023-04-11T16:56:44.098Z,76.20
2023-04-11T17:01:44.787Z,75.28
2023-04-11T17:06:45.452Z,75.49
2023-04-11T17:11:46.105Z,76.62
2023-04-11T17:16:46.831Z,77.54
2023-04-11T17:21:47.528Z,76.92
2023-04-11T17:26:48.176Z,76.34
2023-04-11T17:31:48.949Z,75.93
2023-04-11T17:36:49.617Z,75.25
2023-04-11T17:41:50.271Z,75.15
2023-04-11T17:46:51.042Z,75.66
2023-04-11T17:51:58.578Z,75.35
2023-04-11T17:56:53.299Z,76.28
2023-04-11T18:01:53.098Z,76.51
2023-04-11T18:06:53.866Z,76.31
2023-04-11T18:11:54.529Z,77.44
2023-04-11T18:16:55.168Z,77.78
2023-04-11T18:21:55.815Z,77.99
2023-04-11T18:26:56.494Z,78.09
2023-04-11T18:32:19.361Z,78.09
2023-04-11T18:36:58.705Z,78.03
2023-04-11T18:41:58.412Z,78.23
2023-04-11T18:47:02.183Z,77.72
2023-04-11T18:52:00.688Z,76.90
2023-04-11T18:57:00.483Z,77.92
2023-04-11T19:02:01.173Z,78.13
2023-04-11T19:07:01.911Z,77.62
2023-04-11T19:12:02.626Z,77.92
2023-04-11T19:17:03.310Z,77.96
2023-04-11T19:22:03.977Z,78.17
2023-04-11T19:27:04.676Z,78.68
2023-04-11T19:32:05.441Z,79.40
2023-04-11T19:37:06.172Z,79.61
2023-04-11T19:42:06.946Z,80.12
2023-04-11T19:47:07.580Z,79.64
2023-04-11T19:52:08.299Z,80.16
2023-04-11T19:57:09.021Z,80.05
2023-04-11T20:02:09.800Z,80.16
2023-04-11T20:07:10.499Z,80.88
2023-04-11T20:12:11.234Z,80.71
2023-04-11T20:17:11.950Z,81.53
2023-04-11T20:22:12.637Z,81.33
2023-04-11T20:27:13.371Z,82.05
2023-04-11T20:32:14.044Z,81.95
2023-04-11T20:37:16.882Z,81.53
2023-04-11T20:42:15.347Z,81.12
2023-04-11T20:47:16.049Z,81.47
2023-04-11T20:52:16.752Z,81.77
2023-04-11T20:57:17.467Z,81.67
2023-04-11T21:02:25.317Z,81.77
2023-04-11T21:07:19.058Z,81.77
2023-04-11T21:12:19.707Z,81.67
2023-04-11T21:17:20.385Z,80.95
2023-04-11T21:22:21.103Z,81.09
2023-04-11T21:27:21.827Z,81.51
2023-04-11T21:32:22.568Z,82.23
2023-04-11T21:37:23.385Z,82.02
2023-04-11T21:42:24.040Z,81.71
2023-04-11T21:47:24.907Z,81.92
2023-04-11T21:52:25.605Z,81.92
2023-04-11T21:57:26.312Z,82.26
2023-04-11T22:02:27.169Z,82.47
2023-04-11T22:07:27.903Z,82.37
2023-04-11T22:12:28.592Z,82.98
2023-04-11T22:17:29.341Z,83.29
2023-04-11T22:22:30.111Z,83.29
2023-04-11T22:27:30.822Z,83.29
2023-04-11T22:32:31.606Z,83.29
2023-04-11T22:37:32.305Z,83.33
2023-04-11T22:42:33.057Z,83.09
2023-04-11T22:47:33.742Z,83.40
2023-04-11T22:52:34.462Z,83.44
2023-04-11T22:57:35.842Z,83.03
2023-04-11T23:02:36.252Z,82.82
2023-04-11T23:07:36.609Z,82.82
2023-04-11T23:12:37.273Z,83.13
2023-04-11T23:17:38.025Z,82.92
2023-04-11T23:22:38.817Z,82.92
2023-04-11T23:27:39.529Z,83.37
2023-04-11T23:32:40.402Z,83.68
2023-04-11T23:37:41.115Z,83.58
2023-04-11T23:42:41.906Z,83.78
2023-04-11T23:47:42.706Z,83.78
2023-04-11T23:52:43.467Z,83.37
2023-04-11T23:57:44.207Z,83.51
